Time;durP1;ratioP1;P1;durP2;ratioP2;P2;SDS_P1;SDS_P2;PMS_P1;PMS_P2;Temp;Humidity;BMP_temperature;BMP_pressure;BME280_temperature;BME280_humidity;BME280_pressure;Samples;Min_cycle;Max_cycle;Signal;HPM_P1;HPM_P2
2021/12/23 08:42:53;;;;;;;29.43;11.10;;;;;;;-4.05;100.00;99023.56;5130506;27;20373;-80
2021/12/23 08:45:21;;;;;;;27.70;11.93;;;;;;;-3.91;100.00;99012.94;5131434;28;20058;-81
2021/12/23 08:47:48;;;;;;;26.57;12.00;;;;;;;-3.67;100.00;99029.09;5131590;28;20150;-81
2021/12/23 08:50:17;;;;;;;29.53;11.97;;;;;;;-3.64;100.00;99022.75;5131346;27;20051;-81
2021/12/23 08:52:44;;;;;;;31.80;11.90;;;;;;;-3.40;100.00;99029.13;5130272;28;20043;-81
2021/12/23 08:55:12;;;;;;;29.73;12.80;;;;;;;-3.36;100.00;99005.84;5131430;28;20547;-80
2021/12/23 08:57:42;;;;;;;27.47;13.27;;;;;;;-3.23;100.00;99003.25;5131291;28;20047;-81
2021/12/23 09:00:14;;;;;;;25.93;11.37;;;;;;;-3.17;100.00;99002.00;5131741;28;20055;-79
2021/12/23 09:02:42;;;;;;;29.63;12.27;;;;;;;-2.90;100.00;99000.13;5126036;28;20067;-79
2021/12/23 09:05:10;;;;;;;31.37;12.73;;;;;;;-2.77;100.00;99002.81;5110595;28;20051;-78
2021/12/23 09:07:37;;;;;;;29.37;11.63;;;;;;;-2.67;100.00;99017.19;5110529;28;20060;-79
2021/12/23 09:10:06;;;;;;;23.97;11.17;;;;;;;-2.67;98.86;99009.19;5110689;28;20105;-79
2021/12/23 09:12:34;;;;;;;26.63;11.52;;;;;;;-2.65;99.90;99019.72;5110201;28;20112;-78
2021/12/23 09:15:18;;;;;;;31.43;12.03;;;;;;;-2.52;100.00;99011.78;5112948;28;20056;-79
2021/12/23 09:17:45;;;;;;;27.17;12.17;;;;;;;-2.51;99.03;98994.84;5094314;28;20046;-79
2021/12/23 09:20:14;;;;;;;27.47;12.97;;;;;;;-2.43;100.00;99002.31;5101845;28;20040;-78
2021/12/23 09:22:41;;;;;;;24.93;11.97;;;;;;;-2.29;100.00;98991.53;5097902;28;20044;-78
2021/12/23 09:25:13;;;;;;;29.27;13.00;;;;;;;-2.15;99.78;99002.06;5104990;28;20048;-79
2021/12/23 09:27:52;;;;;;;27.23;12.00;;;;;;;-2.13;96.75;98988.66;5097295;28;20044;-78
2021/12/23 09:33:05;;;;;;;23.90;10.90;;;;;;;-1.90;94.85;99020.78;5092445;28;20050;-78
2021/12/23 09:35:33;;;;;;;29.13;12.70;;;;;;;-1.92;95.20;99007.56;5090354;28;20048;-78
2021/12/23 09:38:01;;;;;;;28.03;11.13;;;;;;;-1.86;94.60;99012.47;5089728;28;20506;-78
2021/12/23 09:40:32;;;;;;;27.80;11.87;;;;;;;-1.83;96.77;99000.75;5089142;28;20049;-78
2021/12/23 09:43:01;;;;;;;25.80;12.03;;;;;;;-1.68;95.96;99004.13;5088941;28;20057;-79
2021/12/23 09:45:29;;;;;;;25.33;11.10;;;;;;;-1.69;95.70;98986.41;5089652;28;20052;-79
2021/12/23 09:47:58;;;;;;;28.13;10.27;;;;;;;-1.73;95.42;98993.78;5096870;28;20494;-79
2021/12/23 09:50:28;;;;;;;24.50;10.50;;;;;;;-1.73;95.01;98984.91;5089438;28;20052;-79
2021/12/23 09:52:55;;;;;;;30.98;10.85;;;;;;;-1.70;94.82;98990.91;5090407;28;20526;-79
2021/12/23 09:55:25;;;;;;;21.33;11.13;;;;;;;-1.57;95.06;98988.19;5087009;28;20055;-79
2021/12/23 09:57:54;;;;;;;23.77;11.13;;;;;;;-1.37;95.13;98991.19;5075619;28;20059;-79
2021/12/23 10:00:25;;;;;;;25.98;11.65;;;;;;;-1.31;95.49;98964.94;5075342;28;20507;-79
2021/12/23 10:02:54;;;;;;;26.13;11.00;;;;;;;-1.23;94.55;98960.81;5087705;28;20475;-79
2021/12/23 10:05:23;;;;;;;25.13;10.20;;;;;;;-1.10;93.88;98975.81;5093778;28;20097;-79
2021/12/23 10:08:02;;;;;;;34.30;14.48;;;;;;;-0.92;92.34;98978.91;5081905;28;20093;-79
2021/12/23 10:10:34;;;;;;;30.50;12.38;;;;;;;-0.88;92.35;98976.84;5076302;28;20059;-79
2021/12/23 10:27:43;;;;;;;22.23;10.33;;;;;;;-0.45;90.03;98946.84;5095481;28;20055;-79
2021/12/23 10:33:13;;;;;;;27.50;10.57;;;;;;;-0.45;89.86;98944.16;5074896;28;20071;-78
2021/12/23 10:38:29;;;;;;;18.80;9.13;;;;;;;-0.34;92.54;98926.44;5098897;28;20451;-78
2021/12/23 10:40:58;;;;;;;23.73;10.98;;;;;;;-0.27;90.09;98938.31;5086654;28;20056;-79
2021/12/23 10:43:29;;;;;;;31.30;10.43;;;;;;;-0.33;90.81;98928.13;5074065;28;20075;-78
2021/12/23 10:45:59;;;;;;;22.00;10.63;;;;;;;-0.36;91.53;98922.06;5075596;28;20048;-78
2021/12/23 10:48:29;;;;;;;21.83;9.48;;;;;;;-0.26;92.02;98911.50;5079459;28;20549;-78
2021/12/23 10:51:02;;;;;;;22.45;9.18;;;;;;;-0.27;91.34;98909.81;5082528;28;20055;-78
2021/12/23 10:53:44;;;;;;;20.10;9.77;;;;;;;-0.30;91.63;98909.19;5088552;28;20047;-78
2021/12/23 10:59:09;;;;;;;28.33;10.30;;;;;;;0.02;90.44;98900.44;5088641;28;20055;-78
2021/12/23 11:02:06;;;;;;;18.70;9.70;;;;;;;0.20;91.56;98909.63;5094129;28;20134;-78
2021/12/23 11:04:48;;;;;;;23.30;10.13;;;;;;;0.37;89.55;98902.03;5092723;28;20056;-78
2021/12/23 11:07:23;;;;;;;22.73;11.38;;;;;;;0.35;90.14;98892.31;5088506;28;20048;-78
2021/12/23 11:10:16;;;;;;;20.23;8.80;;;;;;;0.31;90.45;98888.19;5091537;28;20052;-79
2021/12/23 11:35:51;;;;;;;25.08;10.48;;;;;;;0.65;92.06;98849.78;5088101;28;20051;-80
2021/12/23 11:38:28;;;;;;;21.10;10.15;;;;;;;0.67;92.19;98827.25;5093743;28;20044;-80
2021/12/23 11:41:01;;;;;;;18.50;9.63;;;;;;;0.77;91.71;98837.16;5074998;28;20062;-80
2021/12/23 11:43:32;;;;;;;19.70;9.57;;;;;;;0.77;91.17;98838.03;5073400;28;20048;-80
2021/12/23 11:46:01;;;;;;;21.80;9.18;;;;;;;0.95;89.58;98824.91;5091812;28;20135;-80
2021/12/23 11:48:28;;;;;;;20.23;9.20;;;;;;;1.13;88.46;98827.81;5093627;28;20055;-80
2021/12/23 11:51:06;;;;;;;19.05;10.23;;;;;;;1.23;89.31;98827.84;5092867;28;20408;-80
2021/12/23 11:53:35;;;;;;;17.73;8.55;;;;;;;1.29;89.42;98808.56;5093288;28;20487;-80
2021/12/23 11:56:06;;;;;;;19.70;8.93;;;;;;;1.17;89.83;98807.81;5083836;28;20060;-80
2021/12/23 11:58:33;;;;;;;20.35;9.13;;;;;;;1.13;90.59;98800.16;5067572;28;20296;-80
2021/12/23 12:01:08;;;;;;;23.60;10.45;;;;;;;1.30;89.45;98804.91;5092882;28;20048;-79
2021/12/23 12:03:40;;;;;;;20.33;8.98;;;;;;;1.41;91.04;98790.56;5093191;28;20048;-79
2021/12/23 12:06:17;;;;;;;19.42;9.15;;;;;;;1.36;90.84;98792.81;5076448;28;20052;-80
2021/12/23 12:08:44;;;;;;;21.38;9.43;;;;;;;1.22;92.28;98778.81;5091102;28;20054;-80
2021/12/23 12:11:18;;;;;;;18.80;9.52;;;;;;;1.21;91.50;98785.13;5092471;28;20040;-80
2021/12/23 12:13:45;;;;;;;18.52;9.27;;;;;;;1.33;91.45;98782.38;5093396;28;20056;-79
2021/12/23 12:16:30;;;;;;;20.30;9.52;;;;;;;1.38;92.37;98764.88;5076503;28;20047;-80
2021/12/23 12:18:58;;;;;;;20.58;9.43;;;;;;;1.52;91.58;98760.13;5072642;28;20049;-80
2021/12/23 12:21:31;;;;;;;18.48;8.48;;;;;;;1.67;90.47;98758.78;5089440;28;20047;-80
2021/12/23 12:24:16;;;;;;;16.33;8.77;;;;;;;1.85;91.29;98779.53;5093119;28;20552;-79
2021/12/23 12:26:58;;;;;;;18.83;9.27;;;;;;;1.83;90.05;98770.78;5077253;28;20044;-80
2021/12/23 12:29:42;;;;;;;26.40;9.18;;;;;;;1.88;90.85;98764.03;5073448;28;20051;-81
2021/12/23 12:32:36;;;;;;;18.88;9.32;;;;;;;1.83;90.47;98744.81;5081488;28;20097;-79
2021/12/23 12:35:12;;;;;;;16.48;8.48;;;;;;;1.88;88.67;98739.91;5084830;28;20365;-80
2021/12/23 12:37:42;;;;;;;17.92;8.50;;;;;;;2.04;87.55;98747.38;5091712;28;20050;-80
2021/12/23 12:40:12;;;;;;;17.02;8.88;;;;;;;2.12;89.31;98758.25;5073080;28;20059;-80
2021/12/23 12:42:45;;;;;;;;;;;;;;;1.98;91.56;98761.34;5092228;28;20135;-80
2021/12/23 12:45:22;;;;;;;14.75;7.47;;;;;;;2.02;89.60;98752.03;5092600;28;19962;-79
2021/12/23 12:47:55;;;;;;;17.08;8.60;;;;;;;1.86;90.82;98749.06;5074394;28;20080;-80
2021/12/23 12:50:27;;;;;;;15.02;7.80;;;;;;;1.89;91.49;98756.84;5092325;28;20055;-80
2021/12/23 12:53:00;;;;;;;17.45;8.45;;;;;;;1.66;91.96;98730.28;5086873;28;20094;-80
2021/12/23 12:55:27;;;;;;;13.75;7.40;;;;;;;1.77;92.73;98745.38;5093099;28;20052;-80
2021/12/23 12:57:58;;;;;;;16.23;7.97;;;;;;;1.71;94.05;98744.09;5080004;28;20049;-80
2021/12/23 13:00:31;;;;;;;16.50;8.27;;;;;;;1.62;93.83;98725.34;5090847;28;20044;-80
2021/12/23 13:03:01;;;;;;;19.23;9.13;;;;;;;1.55;93.53;98720.53;5088664;28;20052;-80
2021/12/23 13:05:31;;;;;;;15.75;8.27;;;;;;;1.63;92.43;98732.41;5072988;28;20056;-80
2021/12/23 13:07:59;;;;;;;19.40;8.68;;;;;;;1.65;93.87;98735.78;5083535;28;20066;-80
2021/12/23 13:10:32;;;;;;;17.63;9.18;;;;;;;1.59;94.81;98731.81;5092996;28;20083;-80
2021/12/23 13:13:04;;;;;;;19.83;9.02;;;;;;;1.61;96.53;98734.34;5092851;28;20044;-80
2021/12/23 13:15:33;;;;;;;20.95;9.68;;;;;;;1.51;98.23;98716.44;5072365;28;20063;-80
2021/12/23 13:18:03;;;;;;;18.90;8.60;;;;;;;1.68;98.57;98714.06;5079371;28;20056;-80
2021/12/23 13:20:43;;;;;;;15.73;8.40;;;;;;;1.70;98.17;98718.31;5072403;28;20051;-80
2021/12/23 13:23:14;;;;;;;14.82;7.97;;;;;;;1.51;99.35;98710.25;5077173;28;20060;-80
2021/12/23 13:25:54;;;;;;;13.75;7.40;;;;;;;1.66;96.24;98737.47;5072475;28;20060;-80
2021/12/23 13:28:33;;;;;;;18.50;9.27;;;;;;;1.87;96.74;98705.19;5074580;28;20055;-80
2021/12/23 13:31:00;;;;;;;13.00;7.68;;;;;;;2.08;94.62;98689.81;5092209;28;20723;-80
2021/12/23 13:33:27;;;;;;;14.85;7.55;;;;;;;1.90;95.59;98708.44;5092156;28;20062;-80
2021/12/23 13:35:55;;;;;;;20.75;10.50;;;;;;;1.86;94.88;98711.53;5076261;28;20055;-80
2021/12/23 13:38:38;;;;;;;20.98;8.55;;;;;;;1.79;93.99;98702.34;5087160;28;20048;-80
2021/12/23 13:41:13;;;;;;;27.73;11.68;;;;;;;1.75;94.85;98699.13;5093450;28;20074;-80
2021/12/23 13:43:42;;;;;;;18.98;9.18;;;;;;;1.79;94.87;98710.41;5095152;28;20089;-80
2021/12/23 13:46:10;;;;;;;14.38;7.25;;;;;;;1.84;93.25;98695.59;5089902;28;20135;-80
2021/12/23 13:49:05;;;;;;;16.27;7.50;;;;;;;1.92;92.50;98695.72;5092405;28;20063;-80
2021/12/23 13:51:34;;;;;;;15.82;7.07;;;;;;;2.03;90.10;98691.22;5090209;28;20052;-80
2021/12/23 13:54:11;;;;;;;19.13;7.45;;;;;;;2.30;89.35;98706.56;5083761;28;20059;-80
2021/12/23 13:56:47;;;;;;;14.77;6.40;;;;;;;2.19;89.70;98696.00;5087060;28;20055;-80
2021/12/23 13:59:18;;;;;;;17.25;8.63;;;;;;;2.21;91.14;98712.78;5093413;28;20133;-80
2021/12/23 14:01:57;;;;;;;21.35;9.52;;;;;;;2.22;93.63;98703.78;5086673;28;20060;-80
2021/12/23 14:04:33;;;;;;;16.92;8.25;;;;;;;2.06;95.96;98685.56;5075320;28;20051;-80
2021/12/23 14:07:00;;;;;;;16.63;9.05;;;;;;;1.97;98.20;98670.34;5075687;28;20053;-80
2021/12/23 14:09:32;;;;;;;19.33;9.23;;;;;;;2.03;100.00;98683.16;5075400;28;20040;-80
2021/12/23 14:11:59;;;;;;;18.23;9.93;;;;;;;1.81;100.00;98655.69;5075227;28;20045;-80
2021/12/23 14:14:30;;;;;;;13.85;7.28;;;;;;;1.93;98.55;98664.41;5093549;28;20127;-80
2021/12/23 14:16:57;;;;;;;22.05;9.95;;;;;;;2.01;98.25;98659.19;5094871;28;20052;-80
2021/12/23 14:19:38;;;;;;;31.33;17.63;;;;;;;1.91;97.43;98661.88;5094131;28;20044;-80
2021/12/23 14:25:07;;;;;;;43.33;18.55;;;;;;;1.90;99.26;98683.47;5080355;28;20087;-80
2021/12/23 14:27:35;;;;;;;36.42;17.65;;;;;;;1.91;99.75;98683.34;5094551;28;20097;-80
2021/12/23 14:30:05;;;;;;;35.58;15.73;;;;;;;1.86;100.00;98695.47;5085580;28;20068;-80
2021/12/23 14:32:32;;;;;;;44.40;16.70;;;;;;;1.74;100.00;98692.91;5089477;28;20042;-80
2021/12/23 14:34:59;;;;;;;44.17;15.60;;;;;;;1.67;100.00;98690.91;5075276;28;20048;-80
2021/12/23 14:37:26;;;;;;;38.42;15.70;;;;;;;1.63;100.00;98684.19;5078010;28;20402;-80
2021/12/23 14:39:56;;;;;;;37.20;16.13;;;;;;;1.58;100.00;98682.75;5089781;28;20048;-80
2021/12/23 14:42:24;;;;;;;;;;;;;;;1.59;100.00;98684.41;5093773;28;20048;-80
2021/12/23 14:44:59;;;;;;;24.75;11.55;;;;;;;1.40;100.00;98661.16;5076637;28;19920;-80
2021/12/23 14:47:30;;;;;;;25.33;12.07;;;;;;;1.53;100.00;98655.50;5083080;28;20048;-80
2021/12/23 14:50:12;;;;;;;32.53;12.48;;;;;;;1.57;100.00;98677.53;5075242;28;20060;-80
2021/12/23 14:52:45;;;;;;;30.48;13.20;;;;;;;1.69;100.00;98659.50;5091145;28;20483;-80
2021/12/23 14:55:14;;;;;;;21.08;9.93;;;;;;;1.60;100.00;98653.13;5089243;28;20051;-80
2021/12/23 14:57:49;;;;;;;20.10;7.75;;;;;;;1.71;100.00;98658.34;5094896;28;20044;-80
2021/12/23 15:00:20;;;;;;;15.65;8.43;;;;;;;1.50;100.00;98633.53;5085457;28;20049;-80
2021/12/23 15:02:49;;;;;;;14.25;8.55;;;;;;;1.46;100.00;98637.47;5074576;28;20403;-80
2021/12/23 15:05:18;;;;;;;14.43;7.60;;;;;;;1.51;100.00;98653.97;5083312;28;20048;-80
2021/12/23 15:07:51;;;;;;;13.68;7.65;;;;;;;1.55;100.00;98655.38;5094951;28;20048;-80
2021/12/23 15:10:31;;;;;;;15.00;7.03;;;;;;;1.47;100.00;98639.16;5094648;28;20051;-80
2021/12/23 15:12:59;;;;;;;12.50;7.80;;;;;;;1.49;100.00;98643.41;5094527;28;20407;-80
2021/12/23 15:15:30;;;;;;;13.35;7.45;;;;;;;1.38;100.00;98639.00;5093805;28;20047;-80
2021/12/23 15:18:10;;;;;;;13.75;7.28;;;;;;;1.48;100.00;98643.53;5095133;28;20683;-79
2021/12/23 15:20:40;;;;;;;16.92;8.07;;;;;;;1.53;100.00;98633.25;5084382;28;20537;-79
2021/12/23 15:23:08;;;;;;;15.85;7.70;;;;;;;1.44;100.00;98613.50;5074237;28;20052;-80
2021/12/23 15:25:36;;;;;;;17.00;8.18;;;;;;;1.35;100.00;98612.50;5082848;28;20047;-80
2021/12/23 15:28:05;;;;;;;17.15;8.35;;;;;;;1.35;100.00;98619.69;5089094;28;20049;-79
2021/12/23 15:30:33;;;;;;;15.52;7.57;;;;;;;1.43;100.00;98635.94;5081728;28;20050;-79
2021/12/23 15:33:04;;;;;;;21.52;9.82;;;;;;;1.40;100.00;98628.16;5092039;28;20052;-79
2021/12/23 15:35:31;;;;;;;21.85;10.82;;;;;;;1.42;100.00;98623.50;5078058;28;20059;-80
2021/12/23 15:38:01;;;;;;;20.38;10.93;;;;;;;1.42;100.00;98613.63;5094017;28;20051;-79
2021/12/23 15:40:32;;;;;;;23.70;10.77;;;;;;;1.32;100.00;98602.06;5083161;28;20070;-79
2021/12/23 15:43:01;;;;;;;16.67;8.70;;;;;;;1.47;100.00;98618.56;5092977;28;20498;-79
2021/12/23 15:45:30;;;;;;;14.38;7.15;;;;;;;1.45;100.00;98612.50;5089363;28;20051;-79
2021/12/23 15:47:58;;;;;;;15.95;6.32;;;;;;;1.48;100.00;98609.56;5090062;28;20047;-79
2021/12/23 15:50:28;;;;;;;15.15;8.10;;;;;;;1.61;100.00;98635.22;5090442;28;20041;-79
2021/12/23 15:52:58;;;;;;;13.00;6.82;;;;;;;1.61;100.00;98629.84;5103621;28;20069;-79
2021/12/23 15:55:25;;;;;;;9.30;5.68;;;;;;;1.45;100.00;98611.69;5098141;28;20075;-79
2021/12/23 15:57:52;;;;;;;11.70;6.72;;;;;;;1.48;100.00;98622.13;5078791;28;20052;-79
2021/12/23 16:00:21;;;;;;;11.40;6.43;;;;;;;1.34;100.00;98605.47;5084214;28;20047;-79
2021/12/23 16:02:49;;;;;;;13.77;7.18;;;;;;;1.38;100.00;98601.50;5093325;28;20498;-79
2021/12/23 16:08:06;;;;;;;14.60;7.18;;;;;;;1.31;100.00;98587.00;5089231;28;20051;-79
2021/12/23 16:10:33;;;;;;;15.23;7.88;;;;;;;1.43;100.00;98603.78;5073252;28;20052;-79
2021/12/23 16:13:00;;;;;;;24.20;8.07;;;;;;;1.38;100.00;98588.09;5073011;28;20091;-79
2021/12/23 16:15:27;;;;;;;17.80;7.75;;;;;;;1.58;100.00;98596.16;5079746;28;20110;-79
2021/12/23 16:17:54;;;;;;;18.65;8.85;;;;;;;1.59;100.00;98598.69;5087560;28;20098;-80
2021/12/23 16:20:23;;;;;;;12.52;6.40;;;;;;;1.61;100.00;98577.09;5092691;28;20705;-79
2021/12/23 16:22:50;;;;;;;16.30;8.32;;;;;;;1.71;100.00;98569.06;5087923;28;20055;-79
2021/12/23 16:25:19;;;;;;;13.10;7.05;;;;;;;1.87;100.00;98587.25;5093337;28;20162;-80
2021/12/23 16:27:45;;;;;;;16.42;6.60;;;;;;;1.98;100.00;98581.72;5088943;28;20398;-80
2021/12/23 16:30:19;;;;;;;12.88;6.97;;;;;;;2.18;100.00;98563.72;5093158;28;20079;-79
2021/12/23 16:32:48;;;;;;;14.07;6.13;;;;;;;2.41;99.27;98563.38;5085345;28;20051;-79
2021/12/23 16:35:17;;;;;;;16.10;6.77;;;;;;;2.58;97.28;98569.81;5072879;28;20056;-79
2021/12/23 16:37:45;;;;;;;9.10;5.63;;;;;;;2.60;97.53;98571.31;5086852;28;20044;-79
2021/12/23 16:40:15;;;;;;;12.88;6.07;;;;;;;2.46;98.69;98553.06;5092971;28;20076;-79
2021/12/23 16:42:44;;;;;;;12.43;6.60;;;;;;;2.40;99.52;98549.13;5073202;28;20049;-79
2021/12/23 16:45:12;;;;;;;10.23;5.47;;;;;;;2.39;99.43;98557.31;5080948;28;20059;-79
2021/12/23 16:47:39;;;;;;;10.20;6.32;;;;;;;2.47;99.65;98569.00;5093012;28;20411;-79
2021/12/23 16:50:08;;;;;;;12.85;5.88;;;;;;;2.59;99.07;98568.78;5086405;28;20123;-79
2021/12/23 16:52:36;;;;;;;11.23;6.45;;;;;;;2.65;98.68;98557.50;5076096;28;20083;-79
2021/12/23 16:55:12;;;;;;;11.95;6.70;;;;;;;2.63;99.40;98548.72;5088702;28;20520;-79
2021/12/23 16:57:40;;;;;;;13.85;6.85;;;;;;;2.60;99.25;98555.22;5090662;28;20056;-79
2021/12/23 17:00:13;;;;;;;11.02;6.15;;;;;;;2.66;98.98;98556.47;5073839;28;20076;-80
2021/12/23 17:02:42;;;;;;;13.80;6.43;;;;;;;2.67;98.55;98534.00;5085548;28;20075;-79
2021/12/23 17:05:11;;;;;;;14.27;6.00;;;;;;;2.81;97.53;98520.06;5096210;28;20044;-80
2021/12/23 17:07:40;;;;;;;13.50;6.35;;;;;;;2.79;96.36;98538.19;5080920;28;20041;-79
2021/12/23 17:10:08;;;;;;;11.43;5.07;;;;;;;2.79;96.45;98516.69;5093007;28;20411;-79
2021/12/23 17:12:35;;;;;;;17.58;6.25;;;;;;;2.96;97.43;98524.94;5095914;28;20059;-79
2021/12/23 17:15:02;;;;;;;12.13;5.95;;;;;;;2.98;96.14;98531.84;5096686;28;20048;-79
2021/12/23 17:17:39;;;;;;;10.88;5.97;;;;;;;3.09;96.18;98529.94;5095443;28;20052;-80
2021/12/23 17:20:27;;;;;;;11.02;6.70;;;;;;;3.03;96.15;98520.66;5095867;28;20047;-80
2021/12/23 17:22:55;;;;;;;11.45;6.35;;;;;;;3.13;95.62;98512.50;5087101;28;20055;-85
2021/12/23 17:25:21;;;;;;;11.65;5.65;;;;;;;3.25;94.82;98522.03;5083120;28;20068;-80
2021/12/23 17:27:49;;;;;;;10.80;5.80;;;;;;;3.33;94.76;98523.94;5086317;28;20055;-79
2021/12/23 17:30:16;;;;;;;11.57;5.70;;;;;;;3.45;93.39;98511.97;5087234;28;20044;-80
2021/12/23 17:32:45;;;;;;;10.80;5.35;;;;;;;3.61;93.82;98516.59;5076255;28;20064;-79
2021/12/23 17:35:12;;;;;;;14.20;6.13;;;;;;;3.63;93.68;98525.38;5088093;28;20094;-80
2021/12/23 17:37:42;;;;;;;12.52;5.15;;;;;;;3.58;94.13;98502.66;5094777;28;20395;-80
2021/12/23 17:40:10;;;;;;;9.68;5.60;;;;;;;3.55;94.61;98509.16;5096068;28;20105;-80
2021/12/23 17:42:37;;;;;;;9.10;5.10;;;;;;;3.48;94.97;98505.44;5083962;28;20072;-80
2021/12/23 17:45:04;;;;;;;9.65;5.80;;;;;;;3.45;94.74;98500.38;5075304;28;20052;-80
2021/12/23 17:47:31;;;;;;;13.00;6.35;;;;;;;3.53;95.44;98509.31;5083365;28;20058;-80
2021/12/23 17:49:59;;;;;;;10.05;5.68;;;;;;;3.46;95.97;98505.59;5080264;28;20071;-80
2021/12/23 17:52:26;;;;;;;12.13;5.90;;;;;;;3.43;96.16;98516.63;5094994;28;20498;-80
2021/12/23 17:54:55;;;;;;;13.18;6.63;;;;;;;3.46;97.42;98524.41;5088291;28;20044;-80
2021/12/23 17:57:23;;;;;;;14.10;6.30;;;;;;;3.46;97.41;98527.09;5079952;28;20059;-80
2021/12/23 17:59:50;;;;;;;13.48;6.97;;;;;;;3.48;98.32;98541.22;5091345;28;20541;-80
2021/12/23 18:02:18;;;;;;;15.65;7.30;;;;;;;3.28;99.50;98524.41;5089919;28;20048;-80
2021/12/23 18:04:45;;;;;;;11.40;5.88;;;;;;;3.36;99.29;98537.06;5090927;28;20045;-80
2021/12/23 18:07:13;;;;;;;13.32;6.20;;;;;;;3.42;98.67;98536.47;5090965;28;20044;-80
2021/12/23 18:09:40;;;;;;;12.75;6.20;;;;;;;3.34;98.77;98526.50;5075444;28;20050;-79
2021/12/23 18:12:09;;;;;;;14.52;5.63;;;;;;;3.32;99.45;98522.25;5079156;28;20064;-79
2021/12/23 18:14:37;;;;;;;10.45;6.25;;;;;;;3.46;100.00;98540.53;5074816;28;20385;-80
2021/12/23 18:17:04;;;;;;;15.23;6.00;;;;;;;3.25;100.00;98523.88;5074398;28;20431;-80
2021/12/23 18:19:31;;;;;;;10.15;5.57;;;;;;;3.32;100.00;98530.31;5095789;28;20126;-80
2021/12/23 18:21:58;;;;;;;15.48;6.97;;;;;;;3.40;100.00;98524.16;5074277;28;20055;-79
2021/12/23 18:24:27;;;;;;;14.68;6.47;;;;;;;3.20;100.00;98518.97;5079842;28;20045;-80
2021/12/23 18:26:54;;;;;;;9.38;5.47;;;;;;;3.38;100.00;98526.19;5083322;28;20062;-80
2021/12/23 18:29:21;;;;;;;10.88;6.30;;;;;;;3.25;100.00;98503.25;5079714;28;20048;-79
2021/12/23 18:31:56;;;;;;;11.48;5.93;;;;;;;3.29;100.00;98509.13;5094750;28;20487;-80
2021/12/23 18:34:23;;;;;;;11.18;5.90;;;;;;;3.35;100.00;98503.97;5085239;28;20147;-80
2021/12/23 18:36:57;;;;;;;12.80;6.18;;;;;;;3.29;100.00;98530.63;5094807;28;20130;-80
2021/12/23 18:39:28;;;;;;;14.18;8.40;;;;;;;3.35;100.00;98508.50;5094884;28;20144;-80
2021/12/23 18:41:59;;;;;;;13.50;6.65;;;;;;;3.43;100.00;98531.91;5086392;28;20060;-80
2021/12/23 18:44:27;;;;;;;10.98;6.50;;;;;;;3.40;100.00;98522.31;5091167;28;20380;-80
2021/12/23 18:46:56;;;;;;;20.13;6.50;;;;;;;3.14;100.00;98512.34;5094325;28;20041;-80
2021/12/23 18:49:25;;;;;;;20.80;9.90;;;;;;;3.16;100.00;98522.94;5094560;28;20138;-80
2021/12/23 18:51:52;;;;;;;20.08;9.45;;;;;;;3.42;100.00;98527.53;5094890;28;20062;-85
2021/12/23 18:54:19;;;;;;;57.75;31.25;;;;;;;3.42;100.00;98540.97;5078190;28;20045;-79
2021/12/23 18:56:46;;;;;;;20.92;11.70;;;;;;;3.46;100.00;98534.28;5073982;28;20048;-79
2021/12/23 18:59:15;;;;;;;15.82;8.48;;;;;;;3.35;100.00;98538.91;5089717;28;20050;-79
2021/12/23 19:01:44;;;;;;;20.55;10.15;;;;;;;3.23;100.00;98526.69;5094382;28;20114;-79
2021/12/23 19:04:44;;;;;;;19.10;9.37;;;;;;;3.13;100.00;98536.69;5094085;28;20146;-79
2021/12/23 19:07:09;;;;;;;19.30;7.68;;;;;;;3.04;100.00;98542.97;5094147;28;20048;-79
2021/12/23 19:09:36;;;;;;;12.50;7.82;;;;;;;2.98;100.00;98518.41;5076284;28;20048;-79
2021/12/23 19:12:12;;;;;;;12.77;6.85;;;;;;;3.16;100.00;98531.84;5073892;28;20496;-79
2021/12/23 19:14:40;;;;;;;14.85;6.88;;;;;;;3.23;100.00;98529.38;5091640;28;20058;-79
2021/12/23 19:17:07;;;;;;;11.55;6.45;;;;;;;3.23;100.00;98524.03;5094322;28;20054;-79
2021/12/23 19:19:34;;;;;;;15.38;6.07;;;;;;;3.35;100.00;98521.94;5079209;28;20078;-78
2021/12/23 19:22:01;;;;;;;12.23;5.15;;;;;;;3.41;100.00;98515.13;5073472;28;20045;-78
2021/12/23 19:24:28;;;;;;;10.75;5.32;;;;;;;3.48;100.00;98532.31;5076657;28;20051;-79
2021/12/23 19:26:55;;;;;;;12.07;6.28;;;;;;;3.38;100.00;98537.75;5072969;28;20128;-78
2021/12/23 19:29:23;;;;;;;11.60;5.57;;;;;;;3.35;100.00;98544.28;5087318;28;20063;-78
2021/12/23 19:31:51;;;;;;;13.52;5.35;;;;;;;3.55;100.00;98544.09;5094139;28;20052;-78
2021/12/23 19:34:18;;;;;;;13.40;5.88;;;;;;;3.52;100.00;98528.28;5093520;28;20048;-78
2021/12/23 19:36:45;;;;;;;8.40;5.00;;;;;;;3.52;100.00;98539.91;5093584;28;20047;-78
2021/12/23 19:39:22;;;;;;;10.23;5.80;;;;;;;3.52;100.00;98544.41;5082245;28;20058;-79
2021/12/23 19:41:49;;;;;;;11.07;5.85;;;;;;;3.51;100.00;98537.38;5086936;28;20048;-78
2021/12/23 19:44:16;;;;;;;12.82;5.20;;;;;;;3.47;100.00;98536.00;5092773;28;20055;-79
2021/12/23 19:46:43;;;;;;;9.13;4.88;;;;;;;3.50;100.00;98547.25;5093292;28;20044;-78
2021/12/23 19:49:14;;;;;;;13.45;6.88;;;;;;;3.48;100.00;98535.84;5097701;28;20048;-78
2021/12/23 19:51:41;;;;;;;15.70;8.13;;;;;;;3.51;100.00;98534.69;5093665;28;20040;-79
2021/12/23 19:54:08;;;;;;;30.80;8.20;;;;;;;3.56;100.00;98527.00;5092801;28;20043;-79
2021/12/23 19:56:36;;;;;;;11.00;6.10;;;;;;;3.62;100.00;98529.06;5093532;28;20059;-79
2021/12/23 19:59:03;;;;;;;10.23;5.63;;;;;;;3.77;100.00;98528.50;5089125;28;20517;-78
2021/12/23 20:01:30;;;;;;;8.88;5.30;;;;;;;3.89;100.00;98533.44;5093226;28;20055;-79
